Time;durP1;ratioP1;P1;durP2;ratioP2;P2;SDS_P1;SDS_P2;PMS_P1;PMS_P2;Temp;Humidity;BMP_temperature;BMP_pressure;BME280_temperature;BME280_humidity;BME280_pressure;Samples;Min_cycle;Max_cycle;Signal;HPM_P1;HPM_P2
2021/12/20 00:00:29;;;;;;;21.23;16.87;;;;;;;;;;5076101;28;20460;-79
2021/12/20 00:02:57;;;;;;;22.57;17.07;;;;;;;;;;5076784;28;20503;-80
2021/12/20 00:05:25;;;;;;;22.17;17.20;;;;;;;;;;5077368;28;20459;-80
2021/12/20 00:07:52;;;;;;;23.23;17.30;;;;;;;;;;5077035;28;20444;-79
2021/12/20 00:10:20;;;;;;;22.23;16.83;;;;;;;;;;5076577;28;20997;-79
2021/12/20 00:12:47;;;;;;;24.60;17.23;;;;;;;;;;5076982;28;20452;-79
2021/12/20 00:15:15;;;;;;;23.43;17.87;;;;;;;;;;5076187;28;20495;-80
2021/12/20 00:17:42;;;;;;;23.00;16.80;;;;;;;;;;5076688;28;20456;-79
2021/12/20 00:20:09;;;;;;;26.10;18.73;;;;;;;;;;5077015;28;20896;-80
2021/12/20 00:22:36;;;;;;;22.73;17.53;;;;;;;;;;5075060;28;20487;-79
2021/12/20 00:25:04;;;;;;;25.13;17.93;;;;;;;;;;5075913;28;20477;-79
2021/12/20 00:27:32;;;;;;;23.17;18.20;;;;;;;;;;5075953;28;20749;-80
2021/12/20 00:30:00;;;;;;;21.77;16.97;;;;;;;;;;5075628;28;20452;-79
2021/12/20 00:32:27;;;;;;;27.07;18.30;;;;;;;;;;5075507;28;20445;-79
2021/12/20 00:34:54;;;;;;;26.60;18.70;;;;;;;;;;5075558;28;20468;-80
2021/12/20 00:40:22;;;;;;;22.40;17.20;;;;;;;;;;5075181;28;20483;-80
2021/12/20 00:42:51;;;;;;;22.90;18.23;;;;;;;;;;5075792;28;20575;-80
2021/12/20 00:45:18;;;;;;;26.97;18.87;;;;;;;;;;5074869;28;20461;-78
2021/12/20 00:47:45;;;;;;;24.30;16.77;;;;;;;;;;5075429;28;20478;-79
2021/12/20 00:50:13;;;;;;;24.67;17.83;;;;;;;;;;5076138;28;20437;-79
2021/12/20 00:52:41;;;;;;;22.20;17.60;;;;;;;;;;5074643;28;20946;-79
2021/12/20 00:55:08;;;;;;;21.50;16.40;;;;;;;;;;5074286;28;20475;-79
2021/12/20 00:57:35;;;;;;;24.63;18.03;;;;;;;;;;5074450;28;20455;-79
2021/12/20 01:00:06;;;;;;;25.93;17.60;;;;;;;;;;5075153;28;20436;-79
2021/12/20 01:02:33;;;;;;;22.17;17.43;;;;;;;;;;5066141;28;20487;-79
2021/12/20 01:05:00;;;;;;;22.80;17.73;;;;;;;;;;5056118;28;20466;-79
2021/12/20 01:07:28;;;;;;;20.70;16.27;;;;;;;;;;5054882;28;20448;-79
2021/12/20 01:09:58;;;;;;;24.43;17.93;;;;;;;;;;5056263;28;20820;-80
2021/12/20 01:12:29;;;;;;;25.30;17.73;;;;;;;;;;5054741;28;20434;-79
2021/12/20 01:14:59;;;;;;;25.77;18.70;;;;;;;;;;5055035;28;20462;-79
2021/12/20 01:17:27;;;;;;;27.17;18.50;;;;;;;;;;5055637;28;20446;-79
2021/12/20 01:19:55;;;;;;;23.97;17.10;;;;;;;;;;5054946;28;20889;-80
2021/12/20 01:22:22;;;;;;;28.10;19.80;;;;;;;;;;5054298;28;20457;-79
2021/12/20 01:24:49;;;;;;;28.20;19.67;;;;;;;;;;5053632;28;20453;-79
2021/12/20 01:27:16;;;;;;;26.67;18.13;;;;;;;;;;5053331;28;20460;-79
2021/12/20 01:29:43;;;;;;;26.00;18.67;;;;;;;;;;5053264;28;20445;-79
2021/12/20 01:32:10;;;;;;;26.00;18.43;;;;;;;;;;5054049;28;20515;-79
2021/12/20 01:34:39;;;;;;;27.00;19.00;;;;;;;;;;5059499;28;20469;-78
2021/12/20 01:37:06;;;;;;;27.20;18.93;;;;;;;;;;5069540;28;20531;-79
2021/12/20 01:39:33;;;;;;;31.07;18.20;;;;;;;;;;5064172;28;20909;-79
2021/12/20 01:42:02;;;;;;;26.50;19.00;;;;;;;;;;5073973;28;20463;-80
2021/12/20 01:44:30;;;;;;;22.73;18.00;;;;;;;;;;5072971;28;20481;-80
2021/12/20 01:46:59;;;;;;;25.17;16.73;;;;;;;;;;5072621;28;20449;-79
2021/12/20 01:49:28;;;;;;;24.57;17.10;;;;;;;;;;5072290;28;20455;-79
2021/12/20 01:52:04;;;;;;;26.03;19.00;;;;;;;;;;5072998;28;20473;-80
2021/12/20 01:54:32;;;;;;;25.37;17.93;;;;;;;;;;5072956;28;20535;-80
2021/12/20 01:56:59;;;;;;;28.90;19.83;;;;;;;;;;5073048;28;20442;-80
2021/12/20 01:59:26;;;;;;;24.60;18.00;;;;;;;;;;5073945;28;20451;-80
2021/12/20 02:01:53;;;;;;;27.20;18.73;;;;;;;;;;5065861;28;20461;-80
2021/12/20 02:04:21;;;;;;;26.90;18.93;;;;;;;;;;5074337;28;20500;-79
2021/12/20 02:06:48;;;;;;;28.97;20.03;;;;;;;;;;5073912;28;20437;-79
2021/12/20 02:09:17;;;;;;;26.83;18.20;;;;;;;;;;5073966;28;20490;-80
2021/12/20 02:11:46;;;;;;;28.70;18.03;;;;;;;;;;5074824;28;20432;-79
2021/12/20 02:14:13;;;;;;;31.63;20.57;;;;;;;;;;5072807;28;20839;-79
2021/12/20 02:16:41;;;;;;;27.10;19.20;;;;;;;;;;5074102;28;20459;-79
2021/12/20 02:19:09;;;;;;;28.87;19.27;;;;;;;;;;5073550;28;20509;-79
2021/12/20 02:21:39;;;;;;;28.43;19.10;;;;;;;;;;5073430;28;20498;-79
2021/12/20 02:24:06;;;;;;;25.38;19.15;;;;;;;;;;5073575;28;20588;-79
2021/12/20 02:26:35;;;;;;;25.30;18.33;;;;;;;;;;5075379;28;20362;-79
2021/12/20 02:29:05;;;;;;;27.97;19.10;;;;;;;;;;5077008;28;20479;-80
2021/12/20 02:39:46;;;;;;;30.90;19.40;;;;;;;;;;5070255;28;20520;-80
2021/12/20 02:42:18;;;;;;;26.07;18.47;;;;;;;;;;5072934;28;20443;-80
2021/12/20 02:44:52;;;;;;;28.65;19.42;;;;;;;;;;5074265;28;20946;-80
2021/12/20 02:47:28;;;;;;;29.73;19.63;;;;;;;;;;5072292;28;20672;-79
2021/12/20 02:49:55;;;;;;;26.37;17.60;;;;;;;;;;5072511;28;20523;-79
2021/12/20 02:52:24;;;;;;;27.50;19.47;;;;;;;;;;5072563;28;20858;-79
2021/12/20 02:54:52;;;;;;;30.03;19.87;;;;;;;;;;5072641;28;20979;-79
2021/12/20 02:57:19;;;;;;;26.60;17.80;;;;;;;;;;5073002;28;20867;-79
2021/12/20 02:59:46;;;;;;;26.50;18.80;;;;;;;;;;5072931;28;20451;-79
2021/12/20 03:02:13;;;;;;;29.90;19.13;;;;;;;;;;5066438;28;20446;-80
2021/12/20 03:04:41;;;;;;;27.47;18.70;;;;;;;;;;5054502;28;20489;-79
2021/12/20 03:07:09;;;;;;;25.53;17.60;;;;;;;;;;5054370;28;20445;-78
2021/12/20 03:09:40;;;;;;;31.27;19.87;;;;;;;;;;5060610;28;20967;-80
2021/12/20 03:12:09;;;;;;;27.77;19.00;;;;;;;;;;5071335;28;20520;-79
2021/12/20 03:14:39;;;;;;;24.73;18.50;;;;;;;;;;5068243;28;20482;-79
2021/12/20 03:17:06;;;;;;;26.57;18.90;;;;;;;;;;5074992;28;20531;-79
2021/12/20 03:19:33;;;;;;;23.93;17.50;;;;;;;;;;5077244;28;20437;-80
2021/12/20 03:22:01;;;;;;;27.27;18.50;;;;;;;;;;5074201;28;20952;-80
2021/12/20 03:24:28;;;;;;;24.50;17.80;;;;;;;;;;5075238;28;20570;-80
2021/12/20 03:26:56;;;;;;;30.40;17.50;;;;;;;;;;5078966;28;20468;-80
2021/12/20 03:29:23;;;;;;;26.17;17.47;;;;;;;;;;5077387;28;20449;-79
2021/12/20 03:31:50;;;;;;;23.97;17.30;;;;;;;;;;5080371;28;20452;-79
2021/12/20 03:34:18;;;;;;;27.17;19.20;;;;;;;;;;5077557;28;20445;-79
2021/12/20 03:36:45;;;;;;;25.20;17.87;;;;;;;;;;5078167;28;20447;-79
2021/12/20 03:39:12;;;;;;;26.70;17.57;;;;;;;;;;5081908;28;20450;-78
2021/12/20 03:41:39;;;;;;;29.53;18.90;;;;;;;;;;5078849;28;20430;-79
2021/12/20 03:44:08;;;;;;;38.90;25.80;;;;;;;;;;5081134;28;20490;-80
2021/12/20 03:46:36;;;;;;;33.47;21.20;;;;;;;;;;5077564;28;20458;-80
2021/12/20 03:49:03;;;;;;;23.67;16.70;;;;;;;;;;5076543;28;20480;-80
2021/12/20 03:51:30;;;;;;;26.60;18.67;;;;;;;;;;5075411;28;20496;-79
2021/12/20 03:53:57;;;;;;;28.27;18.97;;;;;;;;;;5078930;28;20437;-79
2021/12/20 03:56:24;;;;;;;31.40;19.47;;;;;;;;;;5077774;28;20472;-79
2021/12/20 03:58:51;;;;;;;25.93;17.33;;;;;;;;;;5082149;28;20867;-78
2021/12/20 04:01:19;;;;;;;26.33;18.83;;;;;;;;;;5081948;28;20442;-79
2021/12/20 04:03:49;;;;;;;27.50;17.50;;;;;;;;;;5062988;28;20486;-79
2021/12/20 04:06:16;;;;;;;27.43;17.80;;;;;;;;;;5080316;28;20453;-79
2021/12/20 04:08:44;;;;;;;24.80;18.03;;;;;;;;;;5081315;28;20471;-80
2021/12/20 04:11:11;;;;;;;27.93;19.50;;;;;;;;;;5083809;28;20474;-79
2021/12/20 04:13:38;;;;;;;25.80;18.40;;;;;;;;;;5089259;28;20450;-78
2021/12/20 04:16:06;;;;;;;25.75;17.08;;;;;;;;;;5087972;28;20229;-78
2021/12/20 04:18:34;;;;;;;25.77;18.55;;;;;;;;;;5085474;28;20195;-80
2021/12/20 04:21:01;;;;;;;24.17;17.10;;;;;;;;;;5084018;28;20199;-79
2021/12/20 04:23:28;;;;;;;24.45;17.50;;;;;;;;;;5083635;28;20871;-80
2021/12/20 04:25:55;;;;;;;28.07;18.67;;;;;;;;;;5080639;28;20222;-78
2021/12/20 04:28:22;;;;;;;25.87;18.10;;;;;;;;;;5083018;28;20520;-80
2021/12/20 04:30:49;;;;;;;24.73;18.23;;;;;;;;;;5090031;28;20470;-78
2021/12/20 04:33:16;;;;;;;25.97;18.57;;;;;;;;;;5093885;28;20441;-78
2021/12/20 04:35:44;;;;;;;24.30;17.80;;;;;;;;;;5094290;28;20473;-77
2021/12/20 04:38:12;;;;;;;27.67;18.70;;;;;;;;;;5094123;28;20468;-77
2021/12/20 04:40:39;;;;;;;29.97;19.00;;;;;;;;;;5094789;28;20449;-77
2021/12/20 04:43:06;;;;;;;24.97;18.13;;;;;;;;;;5084106;28;20439;-79
2021/12/20 04:45:34;;;;;;;25.30;17.57;;;;;;;;;;5079611;28;20492;-78
2021/12/20 04:48:01;;;;;;;29.00;17.77;;;;;;;;;;5082719;28;20429;-79
2021/12/20 04:50:29;;;;;;;31.00;18.10;;;;;;;;;;5077411;28;20444;-79
2021/12/20 04:52:58;;;;;;;28.97;19.83;;;;;;;;;;5079385;28;20452;-80
2021/12/20 04:55:25;;;;;;;26.60;18.43;;;;;;;;;;5074166;28;20469;-78
2021/12/20 04:57:53;;;;;;;25.90;17.00;;;;;;;;;;5072458;28;20433;-79
2021/12/20 05:00:21;;;;;;;28.37;18.40;;;;;;;;;;5077543;28;20440;-79
2021/12/20 05:02:48;;;;;;;25.63;17.73;;;;;;;;;;5097311;28;20444;-79
2021/12/20 05:05:15;;;;;;;26.53;17.83;;;;;;;;;;5097384;28;20490;-77
2021/12/20 05:07:44;;;;;;;25.20;17.73;;;;;;;;;;5098282;28;20427;-77
2021/12/20 05:10:23;;;;;;;24.60;17.33;;;;;;;;;;5098055;28;20494;-78
2021/12/20 05:12:50;;;;;;;26.63;16.63;;;;;;;;;;5097842;28;20428;-77
2021/12/20 05:15:17;;;;;;;26.10;18.67;;;;;;;;;;5097902;28;20472;-76
2021/12/20 05:17:44;;;;;;;31.60;19.60;;;;;;;;;;5097711;28;20479;-77
2021/12/20 05:20:12;;;;;;;28.50;18.23;;;;;;;;;;5097991;28;20186;-78
2021/12/20 05:22:39;;;;;;;24.05;17.98;;;;;;;;;;5097804;28;20454;-77
2021/12/20 05:25:06;;;;;;;27.07;18.20;;;;;;;;;;5078617;28;20222;-78
2021/12/20 05:27:35;;;;;;;29.85;19.38;;;;;;;;;;5073842;28;20436;-81
2021/12/20 05:30:03;;;;;;;26.93;17.60;;;;;;;;;;5073689;28;20243;-79
2021/12/20 05:32:30;;;;;;;27.50;17.87;;;;;;;;;;5069381;28;20449;-77
2021/12/20 05:34:57;;;;;;;29.27;18.77;;;;;;;;;;5065444;28;20541;-77
2021/12/20 05:37:24;;;;;;;30.00;18.00;;;;;;;;;;5075893;28;20457;-78
2021/12/20 05:39:52;;;;;;;28.37;19.80;;;;;;;;;;5076867;28;20440;-78
2021/12/20 05:42:19;;;;;;;24.57;17.37;;;;;;;;;;5077501;28;20434;-79
2021/12/20 05:44:50;;;;;;;25.27;18.30;;;;;;;;;;5074324;28;20476;-80
2021/12/20 05:47:17;;;;;;;27.70;18.60;;;;;;;;;;5075610;28;20443;-78
2021/12/20 05:49:44;;;;;;;26.70;18.13;;;;;;;;;;5075942;28;20501;-78
2021/12/20 05:52:11;;;;;;;27.97;18.80;;;;;;;;;;5077167;28;20444;-78
2021/12/20 05:54:38;;;;;;;26.60;18.90;;;;;;;;;;5076897;28;20531;-80
2021/12/20 05:57:05;;;;;;;27.37;19.30;;;;;;;;;;5077959;28;20940;-80
2021/12/20 05:59:33;;;;;;;27.43;18.70;;;;;;;;;;5077322;28;20531;-78
2021/12/20 06:02:01;;;;;;;30.90;19.13;;;;;;;;;;5077237;28;20448;-80
2021/12/20 06:04:28;;;;;;;29.43;19.30;;;;;;;;;;5075116;28;20533;-80
2021/12/20 06:06:55;;;;;;;28.70;18.88;;;;;;;;;;5073442;28;20444;-80
2021/12/20 06:09:22;;;;;;;27.20;18.40;;;;;;;;;;5075392;28;20522;-80
2021/12/20 06:11:50;;;;;;;29.77;19.17;;;;;;;;;;5075583;28;20440;-80
2021/12/20 06:14:17;;;;;;;31.63;19.83;;;;;;;;;;5073333;28;20432;-79
2021/12/20 06:16:44;;;;;;;30.33;19.80;;;;;;;;;;5074498;28;20805;-80
2021/12/20 06:19:12;;;;;;;27.67;19.37;;;;;;;;;;5076575;28;20447;-79
2021/12/20 06:21:39;;;;;;;33.60;18.97;;;;;;;;;;5075870;28;20447;-80
2021/12/20 06:24:07;;;;;;;33.37;20.33;;;;;;;;;;5075858;28;20463;-79
2021/12/20 06:26:34;;;;;;;31.77;18.60;;;;;;;;;;5073569;28;20491;-81
2021/12/20 06:29:01;;;;;;;29.87;21.03;;;;;;;;;;5069897;28;20498;-79
2021/12/20 06:31:28;;;;;;;37.87;20.43;;;;;;;;;;5075995;28;20453;-80
2021/12/20 06:33:55;;;;;;;35.00;22.50;;;;;;;;;;5073811;28;20447;-79
2021/12/20 06:36:25;;;;;;;29.10;19.60;;;;;;;;;;5071617;28;20466;-79
2021/12/20 06:38:54;;;;;;;31.40;20.40;;;;;;;;;;5071608;28;20466;-79
2021/12/20 06:41:21;;;;;;;27.67;19.70;;;;;;;;;;5075835;28;20582;-80
2021/12/20 06:43:48;;;;;;;29.20;18.93;;;;;;;;;;5073077;28;20472;-79
2021/12/20 06:46:15;;;;;;;25.93;19.30;;;;;;;;;;5071524;28;20482;-81
2021/12/20 06:48:42;;;;;;;28.50;19.70;;;;;;;;;;5071881;28;20452;-79
2021/12/20 06:51:10;;;;;;;27.83;18.77;;;;;;;;;;5072099;28;20433;-81
2021/12/20 06:53:38;;;;;;;30.53;19.00;;;;;;;;;;5071750;28;20451;-80
2021/12/20 06:56:05;;;;;;;28.90;18.43;;;;;;;;;;5073125;28;20479;-80
2021/12/20 06:58:32;;;;;;;28.87;18.90;;;;;;;;;;5072067;28;20448;-79
2021/12/20 07:00:59;;;;;;;28.53;18.50;;;;;;;;;;5074322;28;20431;-80
2021/12/20 07:03:27;;;;;;;26.90;18.13;;;;;;;;;;5076080;28;20437;-80
2021/12/20 07:05:54;;;;;;;24.50;17.97;;;;;;;;;;5075596;28;20488;-80
2021/12/20 07:08:22;;;;;;;25.90;18.00;;;;;;;;;;5075976;28;20444;-80
2021/12/20 07:10:51;;;;;;;25.73;17.50;;;;;;;;;;5076910;28;20452;-80
2021/12/20 07:13:18;;;;;;;26.47;18.30;;;;;;;;;;5075944;28;20437;-80
2021/12/20 07:15:47;;;;;;;30.90;18.93;;;;;;;;;;5086509;28;20445;-78
2021/12/20 07:18:34;;;;;;;27.23;17.60;;;;;;;;;;5100409;28;20458;-78
2021/12/20 07:21:07;;;;;;;23.67;15.70;;;;;;;;;;5100273;28;20196;-82
2021/12/20 07:23:37;;;;;;;25.70;18.33;;;;;;;;;;5098245;28;20506;-80
2021/12/20 07:26:31;;;;;;;22.17;16.50;;;;;;;;;;5100119;28;20479;-81
2021/12/20 07:28:59;;;;;;;22.47;16.30;;;;;;;;;;5094366;28;20447;-78
2021/12/20 07:31:26;;;;;;;27.07;17.43;;;;;;;;;;5099633;28;20436;-77
2021/12/20 07:33:53;;;;;;;25.30;17.33;;;;;;;;;;5090992;28;20437;-80
2021/12/20 07:36:22;;;;;;;25.23;16.93;;;;;;;;;;5077705;28;20456;-78
2021/12/20 07:38:49;;;;;;;25.60;16.13;;;;;;;;;;5077615;28;20455;-78
2021/12/20 07:41:18;;;;;;;24.88;16.40;;;;;;;;;;5078186;28;20199;-81
2021/12/20 07:43:45;;;;;;;24.93;16.17;;;;;;;;;;5077100;28;20421;-81
2021/12/20 07:46:14;;;;;;;24.00;16.07;;;;;;;;;;5078081;28;20479;-79
2021/12/20 07:48:41;;;;;;;26.60;16.73;;;;;;;;;;5077502;28;20449;-80
2021/12/20 07:51:08;;;;;;;24.88;16.60;;;;;;;;;;5078757;28;20455;-80
2021/12/20 07:53:35;;;;;;;24.10;17.88;;;;;;;;;;5077289;28;20218;-80
2021/12/20 07:56:02;;;;;;;21.80;16.03;;;;;;;;;;5075654;28;20218;-80
2021/12/20 07:58:29;;;;;;;28.90;18.27;;;;;;;;;;5076873;28;20433;-80
2021/12/20 08:00:58;;;;;;;25.10;17.07;;;;;;;;;;5077377;28;20471;-79
2021/12/20 08:03:26;;;;;;;24.30;15.80;;;;;;;;;;5077600;28;20451;-80
2021/12/20 08:05:53;;;;;;;26.30;17.00;;;;;;;;;;5077987;28;20306;-80
2021/12/20 08:08:21;;;;;;;25.77;16.93;;;;;;;;;;5077904;28;20448;-79
2021/12/20 08:10:48;;;;;;;24.80;16.90;;;;;;;;;;5078047;28;20455;-79
2021/12/20 08:13:16;;;;;;;25.90;17.70;;;;;;;;;;5076855;28;20436;-81
2021/12/20 08:15:43;;;;;;;32.20;18.27;;;;;;;;;;5079440;28;20496;-81
2021/12/20 08:18:10;;;;;;;29.00;18.88;;;;;;;;;;5080280;28;20470;-80
2021/12/20 08:20:38;;;;;;;28.20;18.03;;;;;;;;;;5077679;28;20190;-80
2021/12/20 08:23:05;;;;;;;25.17;17.90;;;;;;;;;;5080236;28;20455;-80
2021/12/20 08:25:35;;;;;;;26.53;18.17;;;;;;;;;;5078241;28;20509;-80
2021/12/20 08:28:03;;;;;;;28.70;19.57;;;;;;;;;;5077942;28;20479;-80
2021/12/20 08:30:30;;;;;;;24.60;17.50;;;;;;;;;;5076652;28;20944;-80
2021/12/20 08:32:57;;;;;;;27.53;18.57;;;;;;;;;;5077595;28;20448;-80
2021/12/20 08:35:24;;;;;;;23.40;17.77;;;;;;;;;;5076881;28;20461;-80
2021/12/20 08:37:53;;;;;;;28.13;18.80;;;;;;;;;;5076084;28;20455;-79
2021/12/20 08:40:21;;;;;;;26.87;17.07;;;;;;;;;;5076897;28;20473;-79
2021/12/20 08:42:48;;;;;;;28.58;18.38;;;;;;;;;;5079973;28;20437;-80
2021/12/20 08:45:16;;;;;;;39.93;25.50;;;;;;;;;;5078933;28;20625;-79
2021/12/20 08:47:43;;;;;;;34.57;24.53;;;;;;;;;;5079379;28;20672;-80
2021/12/20 08:50:13;;;;;;;34.45;21.75;;;;;;;;;;5081848;28;20429;-80
2021/12/20 08:52:40;;;;;;;28.87;18.20;;;;;;;;;;5078552;28;20198;-81
2021/12/20 08:55:09;;;;;;;26.60;16.97;;;;;;;;;;5081052;28;20483;-80
2021/12/20 08:57:36;;;;;;;28.17;17.63;;;;;;;;;;5080910;28;20870;-81
2021/12/20 09:00:04;;;;;;;28.77;17.83;;;;;;;;;;5087790;28;20508;-80
2021/12/20 09:02:31;;;;;;;25.60;18.47;;;;;;;;;;5080870;28;20202;-80
2021/12/20 09:04:58;;;;;;;29.03;19.13;;;;;;;;;;5079489;28;20506;-81
2021/12/20 09:07:25;;;;;;;27.40;17.43;;;;;;;;;;5084430;28;20429;-80
2021/12/20 09:09:52;;;;;;;27.02;18.23;;;;;;;;;;5083319;28;20444;-79
2021/12/20 09:12:21;;;;;;;30.00;19.00;;;;;;;;;;5079933;28;20195;-79
2021/12/20 09:14:49;;;;;;;26.10;17.80;;;;;;;;;;5079490;28;20457;-80
2021/12/20 09:17:16;;;;;;;24.97;17.60;;;;;;;;;;5080546;28;20441;-79
2021/12/20 09:19:43;;;;;;;26.60;19.00;;;;;;;;;;5078787;28;20852;-80
2021/12/20 09:22:11;;;;;;;26.17;18.33;;;;;;;;;;5079665;28;20537;-80
2021/12/20 09:24:39;;;;;;;25.98;18.40;;;;;;;;;;5080696;28;20456;-80
2021/12/20 09:27:07;;;;;;;24.87;18.43;;;;;;;;;;5079540;28;20233;-79
2021/12/20 09:29:35;;;;;;;27.52;18.08;;;;;;;;;;5081939;28;20445;-81
2021/12/20 09:32:03;;;;;;;26.33;17.50;;;;;;;;;;5080539;28;20576;-80
2021/12/20 09:34:30;;;;;;;28.50;18.60;;;;;;;;;;5079055;28;20928;-80
2021/12/20 09:36:57;;;;;;;25.00;17.77;;;;;;;;;;5078497;28;20486;-80
2021/12/20 09:39:24;;;;;;;30.80;17.77;;;;;;;;;;5080032;28;20451;-81
2021/12/20 09:42:01;;;;;;;27.97;19.93;;;;;;;;;;5088507;28;20493;-81
2021/12/20 09:44:28;;;;;;;31.43;19.80;;;;;;;;;;5080596;28;20451;-80
2021/12/20 09:46:57;;;;;;;28.30;19.27;;;;;;;;;;5075337;28;20988;-80
2021/12/20 09:49:24;;;;;;;24.93;18.83;;;;;;;;;;5075996;28;20463;-80
2021/12/20 09:51:52;;;;;;;30.77;19.07;;;;;;;;;;5075778;28;20445;-79
2021/12/20 09:54:19;;;;;;;30.50;19.95;;;;;;;;;;5076827;28;21014;-80
2021/12/20 09:56:46;;;;;;;28.42;19.73;;;;;;;;;;5078129;28;20229;-80
2021/12/20 09:59:19;;;;;;;30.90;20.00;;;;;;;;;;5077091;28;20202;-79
2021/12/20 10:01:46;;;;;;;28.27;19.50;;;;;;;;;;5077567;28;20449;-79
2021/12/20 10:04:15;;;;;;;26.50;20.07;;;;;;;;;;5077535;28;20439;-80
2021/12/20 10:06:43;;;;;;;32.20;21.43;;;;;;;;;;5077695;28;21056;-80
2021/12/20 10:09:13;;;;;;;31.60;21.00;;;;;;;;;;5079829;28;20635;-81
2021/12/20 10:11:41;;;;;;;29.92;20.23;;;;;;;;;;5080532;28;20437;-79
2021/12/20 10:14:09;;;;;;;28.27;20.10;;;;;;;;;;5079726;28;20276;-81
2021/12/20 10:16:36;;;;;;;30.67;20.17;;;;;;;;;;5080640;28;20435;-81
2021/12/20 10:19:04;;;;;;;32.03;21.73;;;;;;;;;;5079306;28;20555;-80
2021/12/20 10:21:39;;;;;;;29.10;20.50;;;;;;;;;;5079047;28;20421;-79
2021/12/20 10:24:07;;;;;;;32.13;20.57;;;;;;;;;;5080597;28;20451;-82
2021/12/20 10:26:41;;;;;;;35.10;21.93;;;;;;;;;;5078166;28;20473;-80
2021/12/20 10:29:18;;;;;;;34.20;22.03;;;;;;;;;;5079660;28;20440;-80
2021/12/20 10:31:45;;;;;;;31.60;20.90;;;;;;;;;;5080229;28;20460;-80
2021/12/20 10:34:13;;;;;;;33.20;22.53;;;;;;;;;;5078604;28;20452;-80
2021/12/20 10:36:51;;;;;;;26.20;18.83;;;;;;;;;;5081797;28;20846;-80
2021/12/20 10:39:18;;;;;;;29.80;20.23;;;;;;;;;;5081476;28;20202;-81
2021/12/20 10:41:51;;;;;;;31.87;20.70;;;;;;;;;;5079697;28;20731;-80
2021/12/20 10:44:20;;;;;;;25.20;19.40;;;;;;;;;;5081013;28;20439;-81
2021/12/20 10:46:49;;;;;;;28.73;18.33;;;;;;;;;;5080547;28;20479;-81
2021/12/20 10:49:18;;;;;;;24.90;18.00;;;;;;;;;;5079343;28;20430;-79
2021/12/20 10:51:45;;;;;;;23.67;16.20;;;;;;;;;;5079378;28;20441;-81
2021/12/20 10:54:17;;;;;;;23.80;16.40;;;;;;;;;;5079512;28;20433;-80
2021/12/20 10:56:49;;;;;;;25.63;18.33;;;;;;;;;;5078347;28;20516;-79
2021/12/20 10:59:16;;;;;;;27.10;16.90;;;;;;;;;;5079517;28;20422;-80
2021/12/20 11:02:34;;;;;;;23.80;17.33;;;;;;;;;;5079681;28;20451;-79
2021/12/20 11:04:50;;;;;;;21.60;15.13;;;;;;;;;;5079246;28;20490;-80
2021/12/20 11:10:06;;;;;;;17.90;13.23;;;;;;;;;;5078700;28;20448;-80
2021/12/20 11:12:34;;;;;;;19.10;12.50;;;;;;;;;;5070620;28;20946;-81
2021/12/20 11:15:02;;;;;;;21.60;13.33;;;;;;;;;;5078780;28;20549;-80
2021/12/20 11:17:30;;;;;;;18.07;11.97;;;;;;;;;;5078459;28;20433;-81
2021/12/20 11:19:58;;;;;;;15.87;11.30;;;;;;;;;;5079763;28;20452;-81
2021/12/20 11:22:26;;;;;;;14.43;11.43;;;;;;;;;;5078540;28;20432;-81
2021/12/20 11:24:54;;;;;;;16.73;12.27;;;;;;;;;;5078172;28;20477;-79
2021/12/20 11:27:24;;;;;;;17.40;12.30;;;;;;;;;;5077957;28;20500;-81
2021/12/20 11:29:52;;;;;;;15.10;12.40;;;;;;;;;;5078343;28;20452;-80
2021/12/20 11:32:20;;;;;;;15.30;12.55;;;;;;;;;;5078412;28;20948;-80
2021/12/20 11:34:47;;;;;;;16.80;12.77;;;;;;;;;;5075885;28;20222;-80
2021/12/20 11:37:15;;;;;;;16.00;11.20;;;;;;;;;;5076055;28;20554;-80
2021/12/20 11:39:42;;;;;;;16.00;12.10;;;;;;;;;;5075334;28;20436;-80
2021/12/20 11:42:12;;;;;;;13.90;11.43;;;;;;;;;;5075135;28;20453;-80
2021/12/20 11:44:41;;;;;;;23.60;14.80;;;;;;;;;;5076843;28;20471;-79
2021/12/20 11:47:10;;;;;;;18.90;13.97;;;;;;;;;;5075405;28;20480;-80
2021/12/20 11:49:38;;;;;;;20.80;15.40;;;;;;;;;;5080268;28;20506;-80
2021/12/20 11:52:08;;;;;;;22.97;16.30;;;;;;;;;;5082076;28;20540;-80
2021/12/20 11:54:43;;;;;;;21.80;17.07;;;;;;;;;;5077808;28;20923;-79
2021/12/20 11:57:33;;;;;;;20.20;14.57;;;;;;;;;;5077306;28;20471;-81
2021/12/20 12:00:02;;;;;;;20.07;15.23;;;;;;;;;;5078886;28;20455;-83
2021/12/20 12:02:30;;;;;;;21.87;14.70;;;;;;;;;;5074803;28;20452;-84
2021/12/20 12:04:58;;;;;;;18.43;14.20;;;;;;;;;;5064270;28;20473;-82
2021/12/20 12:07:26;;;;;;;18.87;15.60;;;;;;;;;;5062216;28;20875;-81
2021/12/20 12:10:05;;;;;;;20.80;14.60;;;;;;;;;;5058354;28;20461;-81
2021/12/20 12:12:34;;;;;;;20.67;14.50;;;;;;;;;;5061714;28;20460;-81
2021/12/20 12:15:08;;;;;;;23.47;15.13;;;;;;;;;;5059821;28;20955;-79
2021/12/20 12:17:56;;;;;;;24.90;15.50;;;;;;;;;;5056608;28;20782;-80
2021/12/20 12:20:36;;;;;;;19.90;14.60;;;;;;;;;;5057058;28;20449;-80
2021/12/20 12:23:10;;;;;;;17.27;13.80;;;;;;;;;;5057423;28;20410;-79
2021/12/20 12:25:40;;;;;;;22.70;14.70;;;;;;;;;;5064253;28;20488;-80
2021/12/20 12:28:09;;;;;;;20.00;13.33;;;;;;;;;;5076896;28;20453;-80
2021/12/20 12:30:38;;;;;;;16.65;12.57;;;;;;;;;;5078162;28;20448;-80
2021/12/20 12:33:18;;;;;;;19.60;13.07;;;;;;;;;;5076659;28;20198;-80
2021/12/20 12:35:49;;;;;;;16.60;12.33;;;;;;;;;;5077890;28;20484;-79
2021/12/20 12:38:18;;;;;;;18.77;11.47;;;;;;;;;;5076524;28;20494;-80
2021/12/20 12:40:48;;;;;;;16.43;11.10;;;;;;;;;;5076171;28;20436;-80
2021/12/20 12:43:16;;;;;;;17.85;12.35;;;;;;;;;;5077356;28;20436;-80
2021/12/20 12:45:52;;;;;;;19.23;12.23;;;;;;;;;;5075900;28;20214;-80
2021/12/20 12:48:38;;;;;;;15.87;10.57;;;;;;;;;;5077622;28;20440;-80
2021/12/20 12:51:05;;;;;;;15.40;12.30;;;;;;;;;;5078948;28;20444;-79
2021/12/20 12:53:39;;;;;;;16.80;11.53;;;;;;;;;;5079242;28;20429;-80
2021/12/20 12:56:25;;;;;;;15.40;11.43;;;;;;;;;;5077728;28;20464;-81
2021/12/20 12:59:07;;;;;;;15.90;11.33;;;;;;;;;;5077520;28;20444;-80
2021/12/20 13:01:35;;;;;;;13.90;10.27;;;;;;;;;;5075725;28;20944;-79
2021/12/20 13:04:02;;;;;;;17.70;12.10;;;;;;;;;;5076719;28;20437;-80
2021/12/20 13:06:29;;;;;;;28.53;18.90;;;;;;;;;;5076717;28;20480;-80
2021/12/20 13:08:59;;;;;;;22.33;16.30;;;;;;;;;;5076411;28;20858;-79
2021/12/20 13:11:26;;;;;;;19.70;13.50;;;;;;;;;;5076386;28;20539;-80
2021/12/20 13:14:06;;;;;;;14.87;12.10;;;;;;;;;;5077001;28;20474;-80
2021/12/20 13:16:37;;;;;;;14.50;10.27;;;;;;;;;;5077426;28;20519;-80
2021/12/20 13:19:05;;;;;;;14.57;10.77;;;;;;;;;;5076323;28;20494;-80
2021/12/20 13:21:37;;;;;;;18.73;12.20;;;;;;;;;;5076526;28;20457;-80
2021/12/20 13:24:14;;;;;;;11.97;9.30;;;;;;;;;;5075803;28;20462;-80
2021/12/20 13:26:41;;;;;;;15.17;10.60;;;;;;;;;;5077571;28;20987;-80
2021/12/20 13:29:08;;;;;;;15.87;10.67;;;;;;;;;;5078220;28;20440;-80
2021/12/20 13:31:37;;;;;;;14.00;10.07;;;;;;;;;;5077318;28;20445;-80
2021/12/20 13:34:10;;;;;;;16.23;9.33;;;;;;;;;;5076256;28;20665;-79
2021/12/20 13:36:38;;;;;;;18.33;11.17;;;;;;;;;;5077698;28;20466;-80
2021/12/20 13:39:06;;;;;;;14.93;11.10;;;;;;;;;;5076429;28;20437;-80
2021/12/20 13:41:34;;;;;;;15.10;10.53;;;;;;;;;;5076675;28;20448;-79
2021/12/20 13:44:04;;;;;;;13.00;9.50;;;;;;;;;;5076249;28;20559;-81
2021/12/20 13:46:39;;;;;;;17.63;10.30;;;;;;;;;;5075931;28;20465;-79
2021/12/20 13:49:09;;;;;;;16.50;11.00;;;;;;;;;;5076504;28;20432;-80
2021/12/20 13:51:37;;;;;;;14.60;10.00;;;;;;;;;;5075600;28;20448;-80
2021/12/20 13:54:16;;;;;;;19.20;10.83;;;;;;;;;;5074611;28;20437;-81
2021/12/20 13:56:43;;;;;;;20.60;11.10;;;;;;;;;;5076808;28;20440;-79
2021/12/20 13:59:10;;;;;;;13.83;9.53;;;;;;;;;;5078485;28;20806;-79
2021/12/20 14:01:38;;;;;;;11.70;7.80;;;;;;;;;;5072868;28;20506;-80
2021/12/20 14:04:07;;;;;;;14.20;7.67;;;;;;;;;;5053824;28;20483;-80
2021/12/20 14:06:41;;;;;;;8.77;7.40;;;;;;;;;;5055538;28;20489;-79
2021/12/20 14:09:20;;;;;;;11.68;7.97;;;;;;;;;;5055765;28;20783;-80
2021/12/20 14:11:47;;;;;;;12.40;7.60;;;;;;;;;;5054867;28;20290;-79
2021/12/20 14:14:14;;;;;;;8.48;6.65;;;;;;;;;;5053974;28;20430;-80
2021/12/20 14:16:57;;;;;;;15.03;7.23;;;;;;;;;;5054748;28;20202;-79
2021/12/20 14:19:39;;;;;;;9.73;8.02;;;;;;;;;;5055028;28;20485;-81
2021/12/20 14:22:07;;;;;;;10.43;7.30;;;;;;;;;;5053692;28;20261;-80
2021/12/20 14:24:38;;;;;;;13.93;8.27;;;;;;;;;;5055952;28;20454;-79
2021/12/20 14:27:06;;;;;;;9.63;7.43;;;;;;;;;;5055383;28;20219;-80
2021/12/20 14:29:33;;;;;;;11.93;7.70;;;;;;;;;;5054689;28;20441;-79
2021/12/20 14:32:00;;;;;;;8.47;6.50;;;;;;;;;;5055227;28;20453;-81
2021/12/20 14:34:31;;;;;;;8.90;7.83;;;;;;;;;;5054688;28;20460;-80
2021/12/20 14:37:07;;;;;;;12.33;7.33;;;;;;;;;;5056359;28;20454;-80
2021/12/20 14:39:42;;;;;;;9.50;7.67;;;;;;;;;;5056721;28;20468;-80
2021/12/20 14:42:09;;;;;;;11.80;7.27;;;;;;;;;;5055764;28;20460;-80